Dunkins Mill, South Carolina
Current Conditions -  °F | °C
As of 11:58 AM on Thursday 27 Nov 2014 (Local Time) from KSSC Reporting Station
Clear Clear  
Wind Chill: 53°   Ceiling: Unl
Heat Index: 53°   Visibility: 10mi
Dew Point: 26°   Wind: 21mph
Humidity: 35%   Direction: 310°NW
Pressure: 30.09"   Gusts: 31mph
Location:  34.1106°N, 80.4967°W
Report Text: KSSC 271658Z AUTO 31018G27KT 10SM CLR 12/M03 A3009 RMK AO2 SLP192 T01181032 $
Loading
Personal Weather Stations






























Interactive Weather Map New forecast layout! Learn more

10-Day Weather Forecast

Advertisements
Track Severe Weather on mobile